createdAt,value
2023-02-11T00:02:03.512Z,5.15
2023-02-11T00:04:30.285Z,5.07
2023-02-11T00:06:57.050Z,6.53
2023-02-11T00:09:25.139Z,6.07
2023-02-11T00:11:52.890Z,7.65
2023-02-11T00:14:19.640Z,6.65
2023-02-11T00:16:46.388Z,7.20
2023-02-11T00:19:13.194Z,7.63
2023-02-11T00:21:40.571Z,7.03
2023-02-11T00:24:07.547Z,6.93
2023-02-11T00:26:35.899Z,5.35
2023-02-11T00:29:03.770Z,6.68
2023-02-11T00:31:30.694Z,5.45
2023-02-11T00:33:57.511Z,7.57
2023-02-11T00:36:25.931Z,6.38
2023-02-11T00:38:53.957Z,6.80
2023-02-11T00:41:21.359Z,5.18
2023-02-11T00:43:49.986Z,7.15
2023-02-11T00:46:17.978Z,5.28
2023-02-11T00:48:44.758Z,6.53
2023-02-11T00:51:12.218Z,6.07
2023-02-11T00:53:38.978Z,6.72
2023-02-11T00:56:06.531Z,5.82
2023-02-11T00:58:35.198Z,5.45
2023-02-11T01:01:04.270Z,4.82
2023-02-11T01:05:57.920Z,4.45
2023-02-11T01:08:24.674Z,5.07
2023-02-11T01:10:56.000Z,5.43
2023-02-11T01:13:23.147Z,6.10
2023-02-11T01:15:50.432Z,6.25
2023-02-11T01:18:20.080Z,4.57
2023-02-11T01:20:47.865Z,5.57
2023-02-11T01:23:14.595Z,5.97
2023-02-11T01:25:41.433Z,5.55
2023-02-11T01:28:16.226Z,5.50
2023-02-11T01:30:43.169Z,4.15
2023-02-11T01:33:09.999Z,5.47
2023-02-11T01:35:39.922Z,6.30
2023-02-11T01:38:07.607Z,4.78
2023-02-11T01:40:34.640Z,4.60
2023-02-11T01:43:01.390Z,5.88
2023-02-11T01:45:55.114Z,5.57
2023-02-11T01:48:27.244Z,4.43
2023-02-11T01:51:01.209Z,5.32
2023-02-11T01:53:29.632Z,5.07
2023-02-11T01:55:57.544Z,5.68
2023-02-11T01:58:24.390Z,5.13
2023-02-11T02:00:51.364Z,5.40
2023-02-11T02:03:20.960Z,6.47
2023-02-11T02:05:53.427Z,4.65
2023-02-11T02:08:25.659Z,5.13
2023-02-11T02:10:54.065Z,5.05
2023-02-11T02:13:20.856Z,4.43
2023-02-11T02:15:50.644Z,4.20
2023-02-11T02:18:30.804Z,4.63
2023-02-11T02:21:34.329Z,3.47
2023-02-11T02:24:21.879Z,5.55
2023-02-11T02:27:13.388Z,6.53
2023-02-11T02:30:09.208Z,5.90
2023-02-11T02:32:51.166Z,5.55
2023-02-11T02:35:29.085Z,6.10
2023-02-11T02:38:01.413Z,5.97
2023-02-11T02:40:34.576Z,4.60
2023-02-11T02:43:02.800Z,6.47
2023-02-11T02:45:29.687Z,5.75
2023-02-11T02:47:57.785Z,5.88
2023-02-11T02:50:30.380Z,6.30
2023-02-11T02:53:10.083Z,6.55
2023-02-11T02:55:45.142Z,6.40
2023-02-11T02:58:34.236Z,5.82
2023-02-11T03:01:08.353Z,6.18
2023-02-11T03:03:43.551Z,5.43
2023-02-11T03:06:16.676Z,6.10
2023-02-11T03:08:47.118Z,6.80
2023-02-11T03:11:17.471Z,6.65
2023-02-11T03:13:46.212Z,5.22
2023-02-11T03:16:18.082Z,6.13
2023-02-11T03:18:50.688Z,6.75
2023-02-11T03:21:18.227Z,6.03
2023-02-11T03:23:50.341Z,7.07
2023-02-11T03:26:23.108Z,6.57
2023-02-11T03:28:54.839Z,5.68
2023-02-11T03:31:28.198Z,6.32
2023-02-11T03:34:04.432Z,6.95
2023-02-11T03:36:38.719Z,6.80
2023-02-11T03:39:07.199Z,5.70
2023-02-11T03:41:35.428Z,9.23
2023-02-11T03:44:04.368Z,7.70
2023-02-11T03:46:34.364Z,7.25
2023-02-11T03:49:06.334Z,7.60
2023-02-11T03:51:34.085Z,7.75
2023-02-11T03:54:05.654Z,7.47
2023-02-11T03:56:38.360Z,8.00
2023-02-11T03:59:05.178Z,6.97
2023-02-11T04:01:32.025Z,8.75
2023-02-11T04:03:58.813Z,8.25
2023-02-11T04:06:27.003Z,6.43
2023-02-11T04:08:53.740Z,9.00
2023-02-11T04:11:20.515Z,6.70
2023-02-11T04:13:47.282Z,9.30
2023-02-11T04:16:14.119Z,9.45
2023-02-11T04:18:40.921Z,7.40
2023-02-11T04:21:07.674Z,8.00
2023-02-11T04:23:35.823Z,9.50
2023-02-11T04:26:02.602Z,6.13
2023-02-11T04:28:29.544Z,9.10
2023-02-11T04:30:57.244Z,7.03
2023-02-11T04:33:24.180Z,8.70
2023-02-11T04:35:51.304Z,8.80
2023-02-11T04:38:18.217Z,8.10
2023-02-11T04:40:46.633Z,9.30
2023-02-11T04:43:13.397Z,9.27
2023-02-11T04:45:40.150Z,8.30
2023-02-11T04:48:06.961Z,9.73
2023-02-11T04:50:33.758Z,6.13
2023-02-11T04:53:00.542Z,9.68
2023-02-11T04:55:27.424Z,10.13
2023-02-11T04:57:55.544Z,10.15
2023-02-11T05:00:22.510Z,9.13
2023-02-11T05:02:49.293Z,9.48
2023-02-11T05:05:16.087Z,9.70
2023-02-11T05:07:42.894Z,10.52
2023-02-11T05:10:09.887Z,11.05
2023-02-11T05:12:36.619Z,7.97
2023-02-11T05:15:05.614Z,10.50
2023-02-11T05:19:58.960Z,10.23
2023-02-11T05:22:25.737Z,7.40
2023-02-11T05:24:52.475Z,10.85
2023-02-11T05:27:20.440Z,10.13
2023-02-11T05:29:47.205Z,11.70
2023-02-11T05:32:15.559Z,11.85
2023-02-11T05:34:42.702Z,10.27
2023-02-11T05:37:09.596Z,11.70
2023-02-11T05:39:36.440Z,12.55
2023-02-11T05:42:03.560Z,11.13
2023-02-11T05:44:30.311Z,13.48
2023-02-11T05:46:57.059Z,12.63
2023-02-11T05:49:25.163Z,11.57
2023-02-11T05:51:51.867Z,12.43
2023-02-11T05:54:18.610Z,12.45
2023-02-11T05:56:45.361Z,13.38
2023-02-11T05:59:13.723Z,12.65
2023-02-11T06:01:40.667Z,13.18
2023-02-11T06:04:07.431Z,11.27
2023-02-11T06:06:35.716Z,12.23
2023-02-11T06:09:02.769Z,12.38
2023-02-11T06:11:29.505Z,13.80
2023-02-11T06:13:56.284Z,12.95
2023-02-11T06:16:23.099Z,15.10
2023-02-11T06:18:49.891Z,14.38
2023-02-11T06:21:17.657Z,10.48
2023-02-11T06:23:45.795Z,14.95
2023-02-11T06:26:17.489Z,14.87
2023-02-11T06:28:44.391Z,13.95
2023-02-11T06:31:11.591Z,14.57
2023-02-11T06:33:38.704Z,12.73
2023-02-11T06:36:14.042Z,13.32
2023-02-11T06:38:40.878Z,12.27
2023-02-11T06:41:10.891Z,15.23
2023-02-11T06:43:37.632Z,12.18
2023-02-11T06:46:04.771Z,12.43
2023-02-11T06:48:31.517Z,15.90
2023-02-11T06:51:01.906Z,13.05
2023-02-11T06:53:28.992Z,15.38
2023-02-11T06:55:55.821Z,12.35
2023-02-11T06:58:24.111Z,15.00
2023-02-11T07:00:50.860Z,16.75
2023-02-11T07:03:17.800Z,16.60
2023-02-11T07:05:44.612Z,14.50
2023-02-11T07:08:11.362Z,16.00
2023-02-11T07:10:38.108Z,15.18
2023-02-11T07:13:04.830Z,16.30
2023-02-11T07:15:32.923Z,16.13
2023-02-11T07:17:59.699Z,14.83
2023-02-11T07:20:26.563Z,16.10
2023-02-11T07:22:53.317Z,10.25
2023-02-11T07:25:20.128Z,16.55
2023-02-11T07:27:47.187Z,15.05
2023-02-11T07:30:14.912Z,16.35
2023-02-11T07:32:43.027Z,15.05
2023-02-11T07:35:12.769Z,15.90
2023-02-11T07:37:39.570Z,16.85
2023-02-11T07:40:07.242Z,16.20
2023-02-11T07:42:34.587Z,17.20
2023-02-11T07:45:02.498Z,15.93
2023-02-11T07:47:29.272Z,14.85
2023-02-11T07:49:57.374Z,17.35
2023-02-11T07:52:24.219Z,17.77
2023-02-11T07:54:51.198Z,15.75
2023-02-11T07:57:17.978Z,17.90
2023-02-11T07:59:45.834Z,17.65
2023-02-11T08:02:12.695Z,15.07
2023-02-11T08:04:39.532Z,13.43
2023-02-11T08:07:07.643Z,19.02
2023-02-11T08:09:34.684Z,16.47
2023-02-11T08:12:01.796Z,19.88
2023-02-11T08:14:28.606Z,16.98
2023-02-11T08:16:55.499Z,18.88
2023-02-11T08:19:23.172Z,16.95
2023-02-11T08:21:50.620Z,18.35
2023-02-11T08:24:18.766Z,20.88
2023-02-11T08:26:45.576Z,22.20
2023-02-11T08:29:14.420Z,21.83
2023-02-11T08:31:42.984Z,20.63
2023-02-11T08:34:10.564Z,20.02
2023-02-11T08:36:38.920Z,19.63
2023-02-11T08:39:18.674Z,18.88
2023-02-11T08:41:51.215Z,19.98
2023-02-11T08:44:20.192Z,20.25
2023-02-11T08:46:47.320Z,22.90
2023-02-11T08:49:14.689Z,22.40
2023-02-11T08:51:41.780Z,21.98
2023-02-11T08:54:08.668Z,18.35
2023-02-11T08:56:37.479Z,22.73
2023-02-11T08:59:06.269Z,21.77
2023-02-11T09:01:33.369Z,22.80
2023-02-11T09:04:00.596Z,23.95
2023-02-11T09:06:28.338Z,20.30
2023-02-11T09:08:57.124Z,19.38
2023-02-11T09:11:27.325Z,20.90
2023-02-11T09:13:54.727Z,23.42
2023-02-11T09:16:25.570Z,20.83
2023-02-11T09:18:52.897Z,18.70
2023-02-11T09:21:21.202Z,22.73
2023-02-11T09:23:48.402Z,22.05
2023-02-11T09:26:17.624Z,17.75
2023-02-11T09:28:44.557Z,25.10
2023-02-11T09:31:14.500Z,21.60
2023-02-11T09:33:46.053Z,20.67
2023-02-11T09:36:13.591Z,23.67
2023-02-11T09:38:40.360Z,23.50
2023-02-11T09:41:34.913Z,23.05
2023-02-11T09:44:04.019Z,24.70
2023-02-11T09:46:34.484Z,22.48
2023-02-11T09:49:04.480Z,22.90
2023-02-11T09:51:39.377Z,18.88
2023-02-11T09:54:12.990Z,22.73
2023-02-11T09:56:39.753Z,24.00
2023-02-11T09:59:13.079Z,20.70
2023-02-11T10:01:45.742Z,20.25
2023-02-11T10:04:25.130Z,19.08
2023-02-11T10:06:55.111Z,23.35
2023-02-11T10:09:45.346Z,22.63
2023-02-11T10:12:24.597Z,18.92
2023-02-11T10:15:05.524Z,21.75
2023-02-11T10:17:41.676Z,21.48
2023-02-11T10:20:20.267Z,19.92
2023-02-11T10:22:50.077Z,21.05
2023-02-11T10:25:23.757Z,13.75
2023-02-11T10:27:51.955Z,18.27
2023-02-11T10:30:28.229Z,19.30
2023-02-11T10:32:59.511Z,18.38
2023-02-11T10:35:27.604Z,18.35
2023-02-11T10:37:54.673Z,15.60
2023-02-11T10:40:25.766Z,17.02
2023-02-11T10:42:55.801Z,16.42
2023-02-11T10:45:28.318Z,17.70
2023-02-11T10:47:55.255Z,17.17
2023-02-11T10:50:27.925Z,14.15
2023-02-11T10:53:12.286Z,17.17
2023-02-11T10:55:39.219Z,14.38
2023-02-11T10:58:06.473Z,16.58
2023-02-11T11:00:38.238Z,13.82
2023-02-11T11:05:37.151Z,11.82
2023-02-11T11:08:05.991Z,14.18
2023-02-11T11:10:39.513Z,14.02
2023-02-11T11:13:28.510Z,13.65
2023-02-11T11:16:15.716Z,13.98
2023-02-11T11:18:44.345Z,13.98
2023-02-11T11:21:18.216Z,13.95
2023-02-11T11:23:54.841Z,13.57
2023-02-11T11:26:22.843Z,13.38
2023-02-11T11:29:08.985Z,12.60
2023-02-11T11:31:45.758Z,13.13
2023-02-11T11:34:26.904Z,13.07
2023-02-11T11:36:59.086Z,12.32
2023-02-11T11:39:29.189Z,13.85
2023-02-11T11:42:02.269Z,13.27
2023-02-11T11:44:31.723Z,12.88
2023-02-11T11:47:27.007Z,11.48
2023-02-11T11:50:14.776Z,13.45
2023-02-11T11:52:49.895Z,12.95
2023-02-11T11:55:20.556Z,12.73
2023-02-11T11:57:48.853Z,11.75
2023-02-11T12:00:18.755Z,13.15
2023-02-11T12:03:24.038Z,12.57
2023-02-11T12:06:04.125Z,12.65
2023-02-11T12:08:42.638Z,10.57
2023-02-11T12:11:17.732Z,12.85
2023-02-11T12:13:55.458Z,13.63
2023-02-11T12:16:30.566Z,12.75
2023-02-11T12:19:38.893Z,12.50
2023-02-11T12:22:11.386Z,13.15
2023-02-11T12:25:01.627Z,10.65
2023-02-11T12:27:42.053Z,11.75
2023-02-11T12:30:20.277Z,11.65
2023-02-11T12:32:55.418Z,12.73
2023-02-11T12:35:36.469Z,11.98
2023-02-11T12:38:18.817Z,12.27
2023-02-11T12:40:55.040Z,10.30
2023-02-11T12:43:25.430Z,12.43
2023-02-11T12:46:37.117Z,12.23
2023-02-11T12:49:34.053Z,10.32
2023-02-11T12:52:22.516Z,11.38
2023-02-11T12:54:54.913Z,10.80
2023-02-11T12:57:26.096Z,10.57
2023-02-11T12:59:58.788Z,9.23
2023-02-11T13:02:38.986Z,9.95
2023-02-11T13:05:14.362Z,11.10
2023-02-11T13:07:44.935Z,10.55
2023-02-11T13:10:25.989Z,10.63
2023-02-11T13:12:57.073Z,11.75
2023-02-11T13:15:23.819Z,10.43
2023-02-11T13:17:57.317Z,10.60
2023-02-11T13:20:35.641Z,10.30
2023-02-11T13:23:10.072Z,9.20
2023-02-11T13:25:44.294Z,9.45
2023-02-11T13:28:25.379Z,9.00
2023-02-11T13:30:53.073Z,9.23
2023-02-11T13:33:30.820Z,8.38
2023-02-11T13:36:19.449Z,10.25
2023-02-11T13:39:02.331Z,8.63
2023-02-11T13:41:35.082Z,10.00
2023-02-11T13:44:24.559Z,9.90
2023-02-11T13:46:54.956Z,9.20
2023-02-11T13:49:24.661Z,9.50
2023-02-11T13:51:52.800Z,11.75
2023-02-11T13:54:28.268Z,9.32
2023-02-11T13:57:33.709Z,9.25
2023-02-11T14:00:07.027Z,9.63
2023-02-11T14:02:35.525Z,10.07
2023-02-11T14:05:20.027Z,9.05
2023-02-11T14:08:12.608Z,9.50
2023-02-11T14:10:50.218Z,9.20
2023-02-11T14:13:24.317Z,9.75
2023-02-11T14:16:04.954Z,10.38
2023-02-11T14:18:53.521Z,10.77
2023-02-11T14:21:23.672Z,10.30
2023-02-11T14:23:52.216Z,9.98
2023-02-11T14:26:45.886Z,8.82
2023-02-11T14:29:17.780Z,10.50
2023-02-11T14:31:55.172Z,10.70
2023-02-11T14:34:39.176Z,11.80
2023-02-11T14:37:26.268Z,9.70
2023-02-11T14:40:00.435Z,10.57
2023-02-11T14:42:29.407Z,11.52
2023-02-11T14:47:32.996Z,11.32
2023-02-11T14:49:59.837Z,11.20
2023-02-11T14:52:29.568Z,12.45
2023-02-11T14:55:09.323Z,12.38
2023-02-11T14:57:37.575Z,10.85
2023-02-11T15:00:16.012Z,13.07
2023-02-11T15:02:44.393Z,12.73
2023-02-11T15:05:25.746Z,12.30
2023-02-11T15:07:55.293Z,12.77
2023-02-11T15:10:29.849Z,12.60
2023-02-11T15:12:57.714Z,12.85
2023-02-11T15:15:25.416Z,11.55
2023-02-11T15:17:54.920Z,13.70
2023-02-11T15:20:26.722Z,13.25
2023-02-11T15:22:58.460Z,11.23
2023-02-11T15:25:25.273Z,14.48
2023-02-11T15:27:53.868Z,14.23
2023-02-11T15:30:30.154Z,12.18
2023-02-11T15:33:00.049Z,12.88
2023-02-11T15:35:28.811Z,12.30
2023-02-11T15:37:57.105Z,13.52
2023-02-11T15:40:25.615Z,14.40
2023-02-11T15:42:58.726Z,14.30
2023-02-11T15:45:30.804Z,15.57
2023-02-11T15:48:06.461Z,14.82
2023-02-11T15:50:34.815Z,15.40
2023-02-11T15:53:05.872Z,12.27
2023-02-11T15:55:33.099Z,14.38
2023-02-11T15:58:01.507Z,14.05
2023-02-11T16:00:34.118Z,13.05
2023-02-11T16:03:02.906Z,12.65
2023-02-11T16:05:33.044Z,9.27
2023-02-11T16:08:00.991Z,9.68
2023-02-11T16:10:30.587Z,8.68
2023-02-11T16:13:17.918Z,11.85
2023-02-11T16:15:50.733Z,13.95
2023-02-11T16:18:37.717Z,11.98
2023-02-11T16:21:11.838Z,14.80
2023-02-11T16:23:41.220Z,12.23
2023-02-11T16:26:20.546Z,12.30
2023-02-11T16:28:47.868Z,15.55
2023-02-11T16:31:14.748Z,15.30
2023-02-11T16:33:46.325Z,15.32
2023-02-11T16:36:15.145Z,13.90
2023-02-11T16:38:41.911Z,15.18
2023-02-11T16:41:08.747Z,13.77
2023-02-11T16:43:35.659Z,15.77
2023-02-11T16:46:02.684Z,15.25
2023-02-11T16:48:29.502Z,15.18
2023-02-11T16:50:58.517Z,15.07
2023-02-11T16:53:25.738Z,15.68
2023-02-11T16:55:53.068Z,15.88
2023-02-11T16:58:19.966Z,16.23
2023-02-11T17:00:47.951Z,17.45
2023-02-11T17:03:20.721Z,17.25
2023-02-11T17:05:55.704Z,16.05
2023-02-11T17:08:24.166Z,16.33
2023-02-11T17:10:51.186Z,17.60
2023-02-11T17:13:18.100Z,13.88
2023-02-11T17:15:44.833Z,15.50
2023-02-11T17:18:13.237Z,15.55
2023-02-11T17:20:40.228Z,14.93
2023-02-11T17:23:07.147Z,15.02
2023-02-11T17:25:35.473Z,15.73
2023-02-11T17:28:02.276Z,11.68
2023-02-11T17:30:29.094Z,15.55
2023-02-11T17:32:55.848Z,17.52
2023-02-11T17:35:22.640Z,15.85
2023-02-11T17:37:49.433Z,14.50
2023-02-11T17:40:17.857Z,17.13
2023-02-11T17:42:46.252Z,16.38
2023-02-11T17:45:13.264Z,15.13
2023-02-11T17:47:40.051Z,14.73
2023-02-11T17:50:08.886Z,13.50
2023-02-11T17:52:36.061Z,16.35
2023-02-11T17:55:05.349Z,15.20
2023-02-11T17:57:32.600Z,15.55
2023-02-11T18:00:00.701Z,16.00
2023-02-11T18:02:27.536Z,16.77
2023-02-11T18:04:54.747Z,15.23
2023-02-11T18:07:21.749Z,15.73
2023-02-11T18:09:48.463Z,14.80
2023-02-11T18:12:15.217Z,16.63
2023-02-11T18:14:41.975Z,16.67
2023-02-11T18:17:10.626Z,15.63
2023-02-11T18:19:37.655Z,14.70
2023-02-11T18:22:04.489Z,16.38
2023-02-11T18:24:34.055Z,15.40
2023-02-11T18:27:01.030Z,12.48
2023-02-11T18:29:27.774Z,15.95
2023-02-11T18:31:55.758Z,16.38
2023-02-11T18:34:24.569Z,14.65
2023-02-11T18:36:52.635Z,15.52
2023-02-11T18:39:19.686Z,12.57
2023-02-11T18:41:46.824Z,12.90
2023-02-11T18:44:15.352Z,13.27
2023-02-11T18:46:42.439Z,14.98
2023-02-11T18:49:10.654Z,14.15
2023-02-11T18:51:38.833Z,12.65
2023-02-11T18:54:05.640Z,14.18
2023-02-11T18:56:32.446Z,14.63
2023-02-11T18:58:59.493Z,15.20
2023-02-11T19:01:28.137Z,12.43
2023-02-11T19:03:56.144Z,13.20
2023-02-11T19:06:25.708Z,12.90
2023-02-11T19:08:59.330Z,13.23
2023-02-11T19:11:28.055Z,14.00
2023-02-11T19:13:55.022Z,13.38
2023-02-11T19:16:21.803Z,13.07
2023-02-11T19:18:49.660Z,12.20
2023-02-11T19:21:16.450Z,12.20
2023-02-11T19:23:43.261Z,13.32
2023-02-11T19:26:11.405Z,12.88
2023-02-11T19:28:38.309Z,13.10
2023-02-11T19:31:06.428Z,13.05
2023-02-11T19:33:33.261Z,11.53
2023-02-11T19:36:03.753Z,14.15
2023-02-11T19:38:30.493Z,11.35
2023-02-11T19:40:57.429Z,13.65
2023-02-11T19:43:25.832Z,12.82
2023-02-11T19:45:53.221Z,12.23
2023-02-11T19:48:20.178Z,11.23
2023-02-11T19:50:46.973Z,11.45
2023-02-11T19:53:13.792Z,11.05
2023-02-11T19:55:40.556Z,11.38
2023-02-11T19:58:07.304Z,13.25
2023-02-11T20:00:35.530Z,13.13
2023-02-11T20:03:02.340Z,12.60
2023-02-11T20:05:33.751Z,12.82
2023-02-11T20:08:00.523Z,11.57
2023-02-11T20:10:27.302Z,13.85
2023-02-11T20:12:55.585Z,20.50
2023-02-11T20:15:22.329Z,22.45
2023-02-11T20:17:50.400Z,15.38
2023-02-11T20:20:17.706Z,17.80
2023-02-11T20:22:44.620Z,13.50
2023-02-11T20:25:11.365Z,13.80
2023-02-11T20:27:38.227Z,14.52
2023-02-11T20:30:06.112Z,15.10
2023-02-11T20:32:32.938Z,14.15
2023-02-11T20:35:01.282Z,12.80
2023-02-11T20:37:30.197Z,11.48
2023-02-11T20:39:57.148Z,10.60
2023-02-11T20:42:23.899Z,11.23
2023-02-11T20:44:51.022Z,12.80
2023-02-11T20:47:18.068Z,12.30
2023-02-11T20:49:44.835Z,13.15
2023-02-11T20:52:12.916Z,13.30
2023-02-11T20:54:39.755Z,14.03
2023-02-11T20:57:07.622Z,13.75
2023-02-11T20:59:34.344Z,13.80
2023-02-11T21:02:01.223Z,13.05
2023-02-11T21:04:29.579Z,13.88
2023-02-11T21:06:59.023Z,13.73
2023-02-11T21:09:29.730Z,13.27
2023-02-11T21:11:56.864Z,14.50
2023-02-11T21:14:24.767Z,13.88
2023-02-11T21:16:52.208Z,13.55
2023-02-11T21:19:20.201Z,11.27
2023-02-11T21:21:47.518Z,13.70
2023-02-11T21:24:14.470Z,13.07
2023-02-11T21:26:42.700Z,13.77
2023-02-11T21:29:10.003Z,11.68
2023-02-11T21:31:37.548Z,13.77
2023-02-11T21:34:04.897Z,12.18
2023-02-11T21:36:31.713Z,12.48
2023-02-11T21:38:58.615Z,14.10
2023-02-11T21:41:25.512Z,14.05
2023-02-11T21:43:53.666Z,13.23
2023-02-11T21:46:21.867Z,13.45
2023-02-11T21:48:49.242Z,13.77
2023-02-11T21:51:18.092Z,14.13
2023-02-11T21:53:45.498Z,14.07
2023-02-11T21:56:14.614Z,13.75
2023-02-11T21:58:41.468Z,14.10
2023-02-11T22:01:14.496Z,12.15
2023-02-11T22:03:41.937Z,13.40
2023-02-11T22:06:10.338Z,12.98
2023-02-11T22:08:37.583Z,9.98
2023-02-11T22:11:05.643Z,12.35
2023-02-11T22:13:33.600Z,13.57
2023-02-11T22:16:05.194Z,14.15
2023-02-11T22:18:33.646Z,12.98
2023-02-11T22:21:02.449Z,12.95
2023-02-11T22:23:29.991Z,13.15
2023-02-11T22:25:57.644Z,13.90
2023-02-11T22:28:24.844Z,10.95
2023-02-11T22:30:55.663Z,13.38
2023-02-11T22:33:23.692Z,13.07
2023-02-11T22:35:58.257Z,11.13
2023-02-11T22:38:25.549Z,13.45
2023-02-11T22:40:52.319Z,13.35
2023-02-11T22:43:19.068Z,13.93
2023-02-11T22:45:45.930Z,13.43
2023-02-11T22:48:12.790Z,14.10
2023-02-11T22:50:39.503Z,14.43
2023-02-11T22:53:10.083Z,14.35
2023-02-11T22:55:37.468Z,13.80
2023-02-11T22:58:04.226Z,14.63
2023-02-11T23:00:36.068Z,13.20
2023-02-11T23:03:02.930Z,13.95
2023-02-11T23:05:29.744Z,14.25
2023-02-11T23:07:56.493Z,13.35
2023-02-11T23:10:24.569Z,13.88
2023-02-11T23:12:51.303Z,15.00
2023-02-11T23:15:18.183Z,15.70
2023-02-11T23:17:44.954Z,16.38
2023-02-11T23:20:12.625Z,16.42
2023-02-11T23:22:39.439Z,14.98
2023-02-11T23:25:06.237Z,16.58
2023-02-11T23:27:34.324Z,18.25
2023-02-11T23:30:01.496Z,17.67
2023-02-11T23:32:28.352Z,13.10
2023-02-11T23:34:55.114Z,14.63
2023-02-11T23:37:21.810Z,15.77
2023-02-11T23:39:48.617Z,16.20
2023-02-11T23:42:15.612Z,15.10
2023-02-11T23:44:43.744Z,15.35
2023-02-11T23:47:10.558Z,14.70
2023-02-11T23:49:37.318Z,16.20
2023-02-11T23:52:04.079Z,15.05
2023-02-11T23:54:30.933Z,15.10
2023-02-11T23:56:57.926Z,15.80
2023-02-11T23:59:24.723Z,15.18
